sensor_id;sensor_type;location;lat;lon;timestamp;P1;durP1;ratioP1;P2;durP2;ratioP2
14268;SDS011;7218;51.480;7.006;2022-12-07T00:02:10;14.52;;;11.90;;
14268;SDS011;7218;51.480;7.006;2022-12-07T00:04:36;15.45;;;11.98;;
14268;SDS011;7218;51.480;7.006;2022-12-07T00:07:03;16.38;;;12.55;;
14268;SDS011;7218;51.480;7.006;2022-12-07T00:09:31;16.88;;;12.52;;
14268;SDS011;7218;51.480;7.006;2022-12-07T00:11:57;16.38;;;12.68;;
14268;SDS011;7218;51.480;7.006;2022-12-07T00:14:24;14.00;;;12.30;;
14268;SDS011;7218;51.480;7.006;2022-12-07T00:16:51;15.00;;;12.40;;
14268;SDS011;7218;51.480;7.006;2022-12-07T00:19:19;16.25;;;12.57;;
14268;SDS011;7218;51.480;7.006;2022-12-07T00:21:46;15.75;;;12.65;;
14268;SDS011;7218;51.480;7.006;2022-12-07T00:24:12;17.33;;;13.23;;
14268;SDS011;7218;51.480;7.006;2022-12-07T00:26:41;15.05;;;13.25;;
14268;SDS011;7218;51.480;7.006;2022-12-07T00:29:09;17.30;;;14.00;;
14268;SDS011;7218;51.480;7.006;2022-12-07T00:31:40;17.02;;;14.02;;
14268;SDS011;7218;51.480;7.006;2022-12-07T00:34:07;18.20;;;14.18;;
14268;SDS011;7218;51.480;7.006;2022-12-07T00:36:39;19.48;;;14.23;;
14268;SDS011;7218;51.480;7.006;2022-12-07T00:39:06;20.83;;;16.40;;
14268;SDS011;7218;51.480;7.006;2022-12-07T00:41:33;16.63;;;14.10;;
14268;SDS011;7218;51.480;7.006;2022-12-07T00:44:01;21.50;;;16.20;;
14268;SDS011;7218;51.480;7.006;2022-12-07T00:46:28;18.42;;;15.75;;
14268;SDS011;7218;51.480;7.006;2022-12-07T00:48:55;20.70;;;15.50;;
14268;SDS011;7218;51.480;7.006;2022-12-07T00:51:22;19.75;;;15.52;;
14268;SDS011;7218;51.480;7.006;2022-12-07T00:53:50;21.60;;;16.00;;
14268;SDS011;7218;51.480;7.006;2022-12-07T00:56:18;19.42;;;16.50;;
14268;SDS011;7218;51.480;7.006;2022-12-07T00:58:49;21.05;;;16.17;;
14268;SDS011;7218;51.480;7.006;2022-12-07T01:01:17;18.75;;;15.23;;
14268;SDS011;7218;51.480;7.006;2022-12-07T01:03:43;21.48;;;16.15;;
14268;SDS011;7218;51.480;7.006;2022-12-07T01:06:13;20.63;;;15.98;;
14268;SDS011;7218;51.480;7.006;2022-12-07T01:08:40;20.45;;;16.25;;
14268;SDS011;7218;51.480;7.006;2022-12-07T01:11:07;20.33;;;16.88;;
14268;SDS011;7218;51.480;7.006;2022-12-07T01:13:35;22.48;;;17.48;;
14268;SDS011;7218;51.480;7.006;2022-12-07T01:16:03;21.60;;;18.75;;
14268;SDS011;7218;51.480;7.006;2022-12-07T01:18:33;26.67;;;18.88;;
14268;SDS011;7218;51.480;7.006;2022-12-07T01:21:01;26.08;;;19.27;;
14268;SDS011;7218;51.480;7.006;2022-12-07T01:23:29;25.10;;;19.08;;
14268;SDS011;7218;51.480;7.006;2022-12-07T01:25:56;31.23;;;19.85;;
14268;SDS011;7218;51.480;7.006;2022-12-07T01:28:24;28.35;;;19.60;;
14268;SDS011;7218;51.480;7.006;2022-12-07T01:30:57;30.95;;;19.75;;
14268;SDS011;7218;51.480;7.006;2022-12-07T01:33:27;29.10;;;19.55;;
14268;SDS011;7218;51.480;7.006;2022-12-07T01:35:56;31.38;;;19.52;;
14268;SDS011;7218;51.480;7.006;2022-12-07T01:38:27;30.27;;;19.60;;
14268;SDS011;7218;51.480;7.006;2022-12-07T01:40:54;27.52;;;19.00;;
14268;SDS011;7218;51.480;7.006;2022-12-07T01:43:21;30.52;;;19.23;;
14268;SDS011;7218;51.480;7.006;2022-12-07T01:45:49;28.95;;;18.50;;
14268;SDS011;7218;51.480;7.006;2022-12-07T01:48:16;26.98;;;17.85;;
14268;SDS011;7218;51.480;7.006;2022-12-07T01:50:45;23.58;;;17.52;;
14268;SDS011;7218;51.480;7.006;2022-12-07T01:53:15;26.70;;;17.63;;
14268;SDS011;7218;51.480;7.006;2022-12-07T01:55:44;33.53;;;18.80;;
14268;SDS011;7218;51.480;7.006;2022-12-07T01:58:14;27.23;;;18.85;;
14268;SDS011;7218;51.480;7.006;2022-12-07T02:00:42;28.60;;;20.15;;
14268;SDS011;7218;51.480;7.006;2022-12-07T02:03:10;30.60;;;20.60;;
14268;SDS011;7218;51.480;7.006;2022-12-07T02:05:40;32.83;;;20.40;;
14268;SDS011;7218;51.480;7.006;2022-12-07T02:08:09;27.55;;;19.75;;
14268;SDS011;7218;51.480;7.006;2022-12-07T02:10:39;31.90;;;20.65;;
14268;SDS011;7218;51.480;7.006;2022-12-07T02:13:06;34.65;;;21.75;;
14268;SDS011;7218;51.480;7.006;2022-12-07T02:15:39;33.15;;;20.45;;
14268;SDS011;7218;51.480;7.006;2022-12-07T02:18:16;36.10;;;22.55;;
14268;SDS011;7218;51.480;7.006;2022-12-07T02:20:51;35.55;;;22.60;;
14268;SDS011;7218;51.480;7.006;2022-12-07T02:26:35;34.97;;;20.85;;
14268;SDS011;7218;51.480;7.006;2022-12-07T02:29:25;37.75;;;23.17;;
14268;SDS011;7218;51.480;7.006;2022-12-07T02:31:56;35.67;;;22.35;;
14268;SDS011;7218;51.480;7.006;2022-12-07T02:34:32;37.20;;;22.88;;
14268;SDS011;7218;51.480;7.006;2022-12-07T02:37:08;35.78;;;23.27;;
14268;SDS011;7218;51.480;7.006;2022-12-07T02:39:42;33.30;;;22.75;;
14268;SDS011;7218;51.480;7.006;2022-12-07T02:42:15;32.10;;;22.02;;
14268;SDS011;7218;51.480;7.006;2022-12-07T02:44:47;31.90;;;21.58;;
14268;SDS011;7218;51.480;7.006;2022-12-07T02:47:14;31.40;;;21.52;;
14268;SDS011;7218;51.480;7.006;2022-12-07T02:49:44;30.00;;;19.95;;
14268;SDS011;7218;51.480;7.006;2022-12-07T02:52:11;29.33;;;19.23;;
14268;SDS011;7218;51.480;7.006;2022-12-07T02:54:37;26.98;;;19.15;;
14268;SDS011;7218;51.480;7.006;2022-12-07T02:57:06;26.30;;;17.50;;
14268;SDS011;7218;51.480;7.006;2022-12-07T02:59:48;23.83;;;17.48;;
14268;SDS011;7218;51.480;7.006;2022-12-07T03:02:27;22.20;;;16.75;;
14268;SDS011;7218;51.480;7.006;2022-12-07T03:05:05;25.42;;;17.52;;
14268;SDS011;7218;51.480;7.006;2022-12-07T03:07:43;25.10;;;17.05;;
14268;SDS011;7218;51.480;7.006;2022-12-07T03:10:17;22.90;;;17.05;;
14268;SDS011;7218;51.480;7.006;2022-12-07T03:12:51;22.80;;;17.95;;
14268;SDS011;7218;51.480;7.006;2022-12-07T03:15:26;23.77;;;18.38;;
14268;SDS011;7218;51.480;7.006;2022-12-07T03:17:56;24.20;;;18.20;;
14268;SDS011;7218;51.480;7.006;2022-12-07T03:20:27;25.45;;;17.30;;
14268;SDS011;7218;51.480;7.006;2022-12-07T03:22:55;28.48;;;18.42;;
14268;SDS011;7218;51.480;7.006;2022-12-07T03:25:23;25.02;;;17.63;;
14268;SDS011;7218;51.480;7.006;2022-12-07T03:27:52;22.52;;;16.10;;
14268;SDS011;7218;51.480;7.006;2022-12-07T03:30:23;24.55;;;16.90;;
14268;SDS011;7218;51.480;7.006;2022-12-07T03:32:54;22.63;;;16.15;;
14268;SDS011;7218;51.480;7.006;2022-12-07T03:35:26;22.08;;;16.25;;
14268;SDS011;7218;51.480;7.006;2022-12-07T03:37:59;26.13;;;16.60;;
14268;SDS011;7218;51.480;7.006;2022-12-07T03:40:32;25.90;;;17.45;;
14268;SDS011;7218;51.480;7.006;2022-12-07T03:43:03;24.38;;;17.17;;
14268;SDS011;7218;51.480;7.006;2022-12-07T03:45:33;24.00;;;16.60;;
14268;SDS011;7218;51.480;7.006;2022-12-07T03:48:06;24.65;;;17.45;;
14268;SDS011;7218;51.480;7.006;2022-12-07T03:50:41;29.40;;;17.75;;
14268;SDS011;7218;51.480;7.006;2022-12-07T03:53:14;26.63;;;17.30;;
14268;SDS011;7218;51.480;7.006;2022-12-07T03:55:44;26.48;;;18.45;;
14268;SDS011;7218;51.480;7.006;2022-12-07T03:58:14;28.23;;;19.15;;
14268;SDS011;7218;51.480;7.006;2022-12-07T04:00:46;26.95;;;19.77;;
14268;SDS011;7218;51.480;7.006;2022-12-07T04:03:12;28.83;;;19.50;;
14268;SDS011;7218;51.480;7.006;2022-12-07T04:05:39;29.63;;;19.77;;
14268;SDS011;7218;51.480;7.006;2022-12-07T04:08:06;27.65;;;18.88;;
14268;SDS011;7218;51.480;7.006;2022-12-07T04:10:33;28.83;;;17.95;;
14268;SDS011;7218;51.480;7.006;2022-12-07T04:12:59;28.52;;;18.30;;
14268;SDS011;7218;51.480;7.006;2022-12-07T04:15:26;29.98;;;19.25;;
14268;SDS011;7218;51.480;7.006;2022-12-07T04:17:54;28.00;;;18.55;;
14268;SDS011;7218;51.480;7.006;2022-12-07T04:20:21;37.03;;;21.23;;
14268;SDS011;7218;51.480;7.006;2022-12-07T04:22:47;33.75;;;20.65;;
14268;SDS011;7218;51.480;7.006;2022-12-07T04:25:14;31.88;;;20.45;;
14268;SDS011;7218;51.480;7.006;2022-12-07T04:27:41;31.95;;;19.50;;
14268;SDS011;7218;51.480;7.006;2022-12-07T04:30:07;28.63;;;18.25;;
14268;SDS011;7218;51.480;7.006;2022-12-07T04:32:34;32.15;;;17.48;;
14268;SDS011;7218;51.480;7.006;2022-12-07T04:35:03;28.00;;;17.67;;
14268;SDS011;7218;51.480;7.006;2022-12-07T04:37:29;26.83;;;18.10;;
14268;SDS011;7218;51.480;7.006;2022-12-07T04:39:56;27.63;;;16.45;;
14268;SDS011;7218;51.480;7.006;2022-12-07T04:42:22;29.23;;;17.30;;
14268;SDS011;7218;51.480;7.006;2022-12-07T04:44:49;29.33;;;17.70;;
14268;SDS011;7218;51.480;7.006;2022-12-07T04:47:16;25.67;;;15.68;;
14268;SDS011;7218;51.480;7.006;2022-12-07T04:49:42;24.98;;;15.93;;
14268;SDS011;7218;51.480;7.006;2022-12-07T04:52:10;27.33;;;15.45;;
14268;SDS011;7218;51.480;7.006;2022-12-07T04:54:36;25.58;;;16.50;;
14268;SDS011;7218;51.480;7.006;2022-12-07T04:57:03;25.27;;;16.58;;
14268;SDS011;7218;51.480;7.006;2022-12-07T04:59:29;28.40;;;17.13;;
14268;SDS011;7218;51.480;7.006;2022-12-07T05:01:56;28.52;;;17.85;;
14268;SDS011;7218;51.480;7.006;2022-12-07T05:04:22;28.42;;;17.35;;
14268;SDS011;7218;51.480;7.006;2022-12-07T05:06:49;24.60;;;16.20;;
14268;SDS011;7218;51.480;7.006;2022-12-07T05:09:17;26.10;;;15.85;;
14268;SDS011;7218;51.480;7.006;2022-12-07T05:11:43;28.92;;;16.48;;
14268;SDS011;7218;51.480;7.006;2022-12-07T05:14:11;25.90;;;17.30;;
14268;SDS011;7218;51.480;7.006;2022-12-07T05:16:40;26.85;;;17.73;;
14268;SDS011;7218;51.480;7.006;2022-12-07T05:19:08;29.27;;;18.65;;
14268;SDS011;7218;51.480;7.006;2022-12-07T05:21:35;31.95;;;18.10;;
14268;SDS011;7218;51.480;7.006;2022-12-07T05:24:02;25.38;;;17.73;;
14268;SDS011;7218;51.480;7.006;2022-12-07T05:26:31;25.17;;;16.83;;
14268;SDS011;7218;51.480;7.006;2022-12-07T05:28:58;27.13;;;17.17;;
14268;SDS011;7218;51.480;7.006;2022-12-07T05:31:26;24.90;;;17.30;;
14268;SDS011;7218;51.480;7.006;2022-12-07T05:33:53;24.92;;;15.45;;
14268;SDS011;7218;51.480;7.006;2022-12-07T05:36:20;21.13;;;14.82;;
14268;SDS011;7218;51.480;7.006;2022-12-07T05:38:46;25.20;;;15.80;;
14268;SDS011;7218;51.480;7.006;2022-12-07T05:41:14;24.55;;;14.65;;
14268;SDS011;7218;51.480;7.006;2022-12-07T05:44:00;22.83;;;14.65;;
14268;SDS011;7218;51.480;7.006;2022-12-07T05:46:27;19.77;;;13.85;;
14268;SDS011;7218;51.480;7.006;2022-12-07T05:48:53;22.42;;;13.35;;
14268;SDS011;7218;51.480;7.006;2022-12-07T05:51:20;22.75;;;13.68;;
14268;SDS011;7218;51.480;7.006;2022-12-07T05:53:47;25.77;;;13.63;;
14268;SDS011;7218;51.480;7.006;2022-12-07T05:56:13;24.15;;;13.88;;
14268;SDS011;7218;51.480;7.006;2022-12-07T05:58:40;19.50;;;12.80;;
14268;SDS011;7218;51.480;7.006;2022-12-07T06:01:25;26.92;;;13.77;;
14268;SDS011;7218;51.480;7.006;2022-12-07T06:03:52;24.42;;;12.90;;
14268;SDS011;7218;51.480;7.006;2022-12-07T06:06:18;23.90;;;13.32;;
14268;SDS011;7218;51.480;7.006;2022-12-07T06:08:45;22.48;;;12.90;;
14268;SDS011;7218;51.480;7.006;2022-12-07T06:11:12;18.67;;;12.30;;
14268;SDS011;7218;51.480;7.006;2022-12-07T06:13:56;22.77;;;13.38;;
14268;SDS011;7218;51.480;7.006;2022-12-07T06:16:22;23.58;;;12.88;;
14268;SDS011;7218;51.480;7.006;2022-12-07T06:18:50;23.50;;;12.80;;
14268;SDS011;7218;51.480;7.006;2022-12-07T06:21:17;22.50;;;12.85;;
14268;SDS011;7218;51.480;7.006;2022-12-07T06:23:43;21.45;;;12.38;;
14268;SDS011;7218;51.480;7.006;2022-12-07T06:26:09;20.30;;;11.77;;
14268;SDS011;7218;51.480;7.006;2022-12-07T06:28:36;23.02;;;12.93;;
14268;SDS011;7218;51.480;7.006;2022-12-07T06:31:02;21.70;;;11.05;;
14268;SDS011;7218;51.480;7.006;2022-12-07T06:33:30;21.75;;;12.75;;
14268;SDS011;7218;51.480;7.006;2022-12-07T06:35:58;21.63;;;11.93;;
14268;SDS011;7218;51.480;7.006;2022-12-07T06:38:24;23.17;;;11.95;;
14268;SDS011;7218;51.480;7.006;2022-12-07T06:40:51;18.13;;;11.52;;
14268;SDS011;7218;51.480;7.006;2022-12-07T06:43:17;23.73;;;11.98;;
14268;SDS011;7218;51.480;7.006;2022-12-07T06:45:44;20.77;;;12.23;;
14268;SDS011;7218;51.480;7.006;2022-12-07T06:48:10;20.63;;;10.95;;
14268;SDS011;7218;51.480;7.006;2022-12-07T06:50:37;21.80;;;12.40;;
14268;SDS011;7218;51.480;7.006;2022-12-07T06:53:04;21.30;;;11.00;;
14268;SDS011;7218;51.480;7.006;2022-12-07T06:55:31;18.60;;;10.75;;
14268;SDS011;7218;51.480;7.006;2022-12-07T06:57:58;17.45;;;10.30;;
14268;SDS011;7218;51.480;7.006;2022-12-07T07:00:24;18.00;;;10.45;;
14268;SDS011;7218;51.480;7.006;2022-12-07T07:02:51;19.20;;;10.18;;
14268;SDS011;7218;51.480;7.006;2022-12-07T07:05:18;17.10;;;9.88;;
14268;SDS011;7218;51.480;7.006;2022-12-07T07:07:46;17.05;;;10.15;;
14268;SDS011;7218;51.480;7.006;2022-12-07T07:10:14;15.88;;;9.85;;
14268;SDS011;7218;51.480;7.006;2022-12-07T07:12:40;17.55;;;9.75;;
14268;SDS011;7218;51.480;7.006;2022-12-07T07:15:07;17.13;;;10.50;;
14268;SDS011;7218;51.480;7.006;2022-12-07T07:17:34;18.50;;;10.32;;
14268;SDS011;7218;51.480;7.006;2022-12-07T07:20:01;17.23;;;9.88;;
14268;SDS011;7218;51.480;7.006;2022-12-07T07:22:28;16.33;;;9.52;;
14268;SDS011;7218;51.480;7.006;2022-12-07T07:24:54;22.27;;;10.73;;
14268;SDS011;7218;51.480;7.006;2022-12-07T07:27:22;16.42;;;10.65;;
14268;SDS011;7218;51.480;7.006;2022-12-07T07:29:48;20.05;;;10.65;;
14268;SDS011;7218;51.480;7.006;2022-12-07T07:32:15;21.42;;;10.82;;
14268;SDS011;7218;51.480;7.006;2022-12-07T07:34:41;19.83;;;11.05;;
14268;SDS011;7218;51.480;7.006;2022-12-07T07:37:08;18.13;;;10.20;;
14268;SDS011;7218;51.480;7.006;2022-12-07T07:39:36;21.90;;;11.98;;
14268;SDS011;7218;51.480;7.006;2022-12-07T07:42:02;19.65;;;11.43;;
14268;SDS011;7218;51.480;7.006;2022-12-07T07:44:30;19.30;;;11.10;;
14268;SDS011;7218;51.480;7.006;2022-12-07T07:46:57;21.80;;;11.38;;
14268;SDS011;7218;51.480;7.006;2022-12-07T07:49:23;18.58;;;10.30;;
14268;SDS011;7218;51.480;7.006;2022-12-07T07:51:50;25.08;;;11.73;;
14268;SDS011;7218;51.480;7.006;2022-12-07T07:54:16;20.83;;;11.75;;
14268;SDS011;7218;51.480;7.006;2022-12-07T07:56:43;21.17;;;10.82;;
14268;SDS011;7218;51.480;7.006;2022-12-07T07:59:10;19.27;;;10.57;;
14268;SDS011;7218;51.480;7.006;2022-12-07T08:01:37;21.20;;;10.25;;
14268;SDS011;7218;51.480;7.006;2022-12-07T08:04:04;19.40;;;11.05;;
14268;SDS011;7218;51.480;7.006;2022-12-07T08:06:30;17.33;;;10.35;;
14268;SDS011;7218;51.480;7.006;2022-12-07T08:08:57;15.27;;;9.82;;
14268;SDS011;7218;51.480;7.006;2022-12-07T08:11:24;20.48;;;9.40;;
14268;SDS011;7218;51.480;7.006;2022-12-07T08:13:50;18.13;;;9.70;;
14268;SDS011;7218;51.480;7.006;2022-12-07T08:16:17;18.75;;;9.23;;
14268;SDS011;7218;51.480;7.006;2022-12-07T08:18:45;15.73;;;10.13;;
14268;SDS011;7218;51.480;7.006;2022-12-07T08:21:12;18.73;;;9.57;;
14268;SDS011;7218;51.480;7.006;2022-12-07T08:23:40;16.95;;;10.10;;
14268;SDS011;7218;51.480;7.006;2022-12-07T08:26:07;17.75;;;9.52;;
14268;SDS011;7218;51.480;7.006;2022-12-07T08:28:35;16.48;;;9.63;;
14268;SDS011;7218;51.480;7.006;2022-12-07T08:31:02;18.80;;;10.40;;
14268;SDS011;7218;51.480;7.006;2022-12-07T08:33:31;19.63;;;8.98;;
14268;SDS011;7218;51.480;7.006;2022-12-07T08:36:01;16.15;;;9.05;;
14268;SDS011;7218;51.480;7.006;2022-12-07T08:38:28;16.98;;;8.75;;
14268;SDS011;7218;51.480;7.006;2022-12-07T08:40:55;21.55;;;9.70;;
14268;SDS011;7218;51.480;7.006;2022-12-07T08:43:22;14.90;;;8.43;;
14268;SDS011;7218;51.480;7.006;2022-12-07T08:45:49;17.75;;;9.10;;
14268;SDS011;7218;51.480;7.006;2022-12-07T08:48:20;16.40;;;9.90;;
14268;SDS011;7218;51.480;7.006;2022-12-07T08:50:49;14.60;;;8.52;;
14268;SDS011;7218;51.480;7.006;2022-12-07T08:53:18;13.63;;;9.45;;
14268;SDS011;7218;51.480;7.006;2022-12-07T08:55:45;13.13;;;8.38;;
14268;SDS011;7218;51.480;7.006;2022-12-07T08:58:13;14.68;;;8.32;;
14268;SDS011;7218;51.480;7.006;2022-12-07T09:00:39;14.15;;;8.65;;
14268;SDS011;7218;51.480;7.006;2022-12-07T09:03:06;16.88;;;8.80;;
14268;SDS011;7218;51.480;7.006;2022-12-07T09:05:33;15.13;;;8.68;;
14268;SDS011;7218;51.480;7.006;2022-12-07T09:08:00;12.52;;;8.30;;
14268;SDS011;7218;51.480;7.006;2022-12-07T09:10:29;15.90;;;7.72;;
14268;SDS011;7218;51.480;7.006;2022-12-07T09:12:56;17.70;;;8.82;;
14268;SDS011;7218;51.480;7.006;2022-12-07T09:15:25;15.57;;;8.43;;
14268;SDS011;7218;51.480;7.006;2022-12-07T09:17:52;17.42;;;7.90;;
14268;SDS011;7218;51.480;7.006;2022-12-07T09:20:19;16.20;;;8.35;;
14268;SDS011;7218;51.480;7.006;2022-12-07T09:22:50;12.65;;;8.23;;
14268;SDS011;7218;51.480;7.006;2022-12-07T09:25:20;13.23;;;8.07;;
14268;SDS011;7218;51.480;7.006;2022-12-07T09:27:48;17.90;;;8.32;;
14268;SDS011;7218;51.480;7.006;2022-12-07T09:30:21;17.60;;;8.50;;
14268;SDS011;7218;51.480;7.006;2022-12-07T09:32:48;13.85;;;8.55;;
14268;SDS011;7218;51.480;7.006;2022-12-07T09:35:14;16.92;;;8.15;;
14268;SDS011;7218;51.480;7.006;2022-12-07T09:37:41;16.65;;;8.43;;
14268;SDS011;7218;51.480;7.006;2022-12-07T09:40:08;17.85;;;8.52;;
14268;SDS011;7218;51.480;7.006;2022-12-07T09:42:35;14.65;;;8.18;;
14268;SDS011;7218;51.480;7.006;2022-12-07T09:45:06;16.73;;;7.95;;
14268;SDS011;7218;51.480;7.006;2022-12-07T09:47:38;16.88;;;8.88;;
14268;SDS011;7218;51.480;7.006;2022-12-07T09:50:05;19.52;;;8.68;;
14268;SDS011;7218;51.480;7.006;2022-12-07T09:52:38;21.25;;;9.70;;
14268;SDS011;7218;51.480;7.006;2022-12-07T09:55:09;16.92;;;9.05;;
14268;SDS011;7218;51.480;7.006;2022-12-07T09:57:38;18.42;;;8.75;;
14268;SDS011;7218;51.480;7.006;2022-12-07T10:00:11;17.85;;;8.63;;
14268;SDS011;7218;51.480;7.006;2022-12-07T10:02:40;22.42;;;10.27;;
14268;SDS011;7218;51.480;7.006;2022-12-07T10:05:10;14.55;;;8.55;;
14268;SDS011;7218;51.480;7.006;2022-12-07T10:07:40;19.42;;;8.60;;
14268;SDS011;7218;51.480;7.006;2022-12-07T10:10:12;16.95;;;8.65;;
14268;SDS011;7218;51.480;7.006;2022-12-07T10:12:54;20.17;;;7.72;;
14268;SDS011;7218;51.480;7.006;2022-12-07T10:15:24;15.52;;;8.10;;
14268;SDS011;7218;51.480;7.006;2022-12-07T10:18:15;15.20;;;8.23;;
14268;SDS011;7218;51.480;7.006;2022-12-07T10:20:46;15.88;;;7.20;;
14268;SDS011;7218;51.480;7.006;2022-12-07T10:23:14;13.02;;;7.00;;
14268;SDS011;7218;51.480;7.006;2022-12-07T10:25:42;12.18;;;6.65;;
14268;SDS011;7218;51.480;7.006;2022-12-07T10:28:11;13.93;;;6.95;;
14268;SDS011;7218;51.480;7.006;2022-12-07T10:30:48;11.48;;;6.68;;
14268;SDS011;7218;51.480;7.006;2022-12-07T10:33:28;13.80;;;7.20;;
14268;SDS011;7218;51.480;7.006;2022-12-07T10:35:57;12.32;;;6.88;;
14268;SDS011;7218;51.480;7.006;2022-12-07T10:38:24;11.25;;;6.22;;
14268;SDS011;7218;51.480;7.006;2022-12-07T10:41:02;11.80;;;6.53;;
14268;SDS011;7218;51.480;7.006;2022-12-07T10:43:30;14.88;;;5.90;;
14268;SDS011;7218;51.480;7.006;2022-12-07T10:46:17;14.32;;;5.80;;
14268;SDS011;7218;51.480;7.006;2022-12-07T10:49:03;14.38;;;5.57;;
14268;SDS011;7218;51.480;7.006;2022-12-07T10:51:45;11.75;;;5.32;;
14268;SDS011;7218;51.480;7.006;2022-12-07T10:54:16;16.20;;;5.45;;
14268;SDS011;7218;51.480;7.006;2022-12-07T11:00:04;10.55;;;5.45;;
14268;SDS011;7218;51.480;7.006;2022-12-07T11:02:52;11.82;;;4.72;;
14268;SDS011;7218;51.480;7.006;2022-12-07T11:05:34;10.45;;;4.80;;
14268;SDS011;7218;51.480;7.006;2022-12-07T11:08:13;10.35;;;4.53;;
14268;SDS011;7218;51.480;7.006;2022-12-07T11:10:46;8.65;;;4.20;;
14268;SDS011;7218;51.480;7.006;2022-12-07T11:13:25;10.63;;;4.35;;
14268;SDS011;7218;51.480;7.006;2022-12-07T11:16:05;13.27;;;3.85;;
14268;SDS011;7218;51.480;7.006;2022-12-07T11:18:45;9.48;;;3.78;;
14268;SDS011;7218;51.480;7.006;2022-12-07T11:21:19;7.75;;;3.10;;
14268;SDS011;7218;51.480;7.006;2022-12-07T11:23:54;6.05;;;3.00;;
14268;SDS011;7218;51.480;7.006;2022-12-07T11:26:31;8.75;;;3.17;;
14268;SDS011;7218;51.480;7.006;2022-12-07T11:29:21;6.18;;;2.95;;
14268;SDS011;7218;51.480;7.006;2022-12-07T11:32:04;8.32;;;3.15;;
14268;SDS011;7218;51.480;7.006;2022-12-07T11:34:45;7.50;;;3.05;;
14268;SDS011;7218;51.480;7.006;2022-12-07T11:37:18;10.18;;;3.25;;
14268;SDS011;7218;51.480;7.006;2022-12-07T11:39:50;9.07;;;2.95;;
14268;SDS011;7218;51.480;7.006;2022-12-07T11:42:21;13.18;;;3.38;;
14268;SDS011;7218;51.480;7.006;2022-12-07T11:44:50;9.90;;;3.38;;
14268;SDS011;7218;51.480;7.006;2022-12-07T11:47:21;4.40;;;2.75;;
14268;SDS011;7218;51.480;7.006;2022-12-07T11:49:56;10.20;;;4.40;;
14268;SDS011;7218;51.480;7.006;2022-12-07T11:52:27;13.07;;;6.88;;
14268;SDS011;7218;51.480;7.006;2022-12-07T11:55:02;13.35;;;6.70;;
14268;SDS011;7218;51.480;7.006;2022-12-07T11:57:42;15.55;;;7.20;;
14268;SDS011;7218;51.480;7.006;2022-12-07T12:00:13;14.38;;;5.32;;
14268;SDS011;7218;51.480;7.006;2022-12-07T12:02:43;12.05;;;4.07;;
14268;SDS011;7218;51.480;7.006;2022-12-07T12:05:17;10.63;;;3.70;;
14268;SDS011;7218;51.480;7.006;2022-12-07T12:07:48;8.45;;;3.75;;
14268;SDS011;7218;51.480;7.006;2022-12-07T12:10:20;10.30;;;3.72;;
14268;SDS011;7218;51.480;7.006;2022-12-07T12:13:01;8.90;;;3.97;;
14268;SDS011;7218;51.480;7.006;2022-12-07T12:15:48;10.23;;;5.43;;
14268;SDS011;7218;51.480;7.006;2022-12-07T12:21:39;12.05;;;3.00;;
14268;SDS011;7218;51.480;7.006;2022-12-07T12:24:09;7.78;;;2.35;;
14268;SDS011;7218;51.480;7.006;2022-12-07T12:26:41;6.65;;;2.28;;
14268;SDS011;7218;51.480;7.006;2022-12-07T12:29:19;10.45;;;2.58;;
14268;SDS011;7218;51.480;7.006;2022-12-07T12:32:04;7.82;;;3.33;;
14268;SDS011;7218;51.480;7.006;2022-12-07T12:34:37;9.18;;;3.72;;
14268;SDS011;7218;51.480;7.006;2022-12-07T12:37:17;10.05;;;3.17;;
14268;SDS011;7218;51.480;7.006;2022-12-07T12:46:37;10.80;;;4.35;;
14268;SDS011;7218;51.480;7.006;2022-12-07T12:49:30;13.43;;;5.15;;
14268;SDS011;7218;51.480;7.006;2022-12-07T12:55:17;12.88;;;6.78;;
14268;SDS011;7218;51.480;7.006;2022-12-07T13:03:53;10.43;;;6.00;;
14268;SDS011;7218;51.480;7.006;2022-12-07T13:06:31;16.13;;;6.32;;
14268;SDS011;7218;51.480;7.006;2022-12-07T13:09:03;9.52;;;5.57;;
14268;SDS011;7218;51.480;7.006;2022-12-07T13:11:34;12.85;;;6.00;;
14268;SDS011;7218;51.480;7.006;2022-12-07T13:17:09;14.65;;;5.95;;
14268;SDS011;7218;51.480;7.006;2022-12-07T13:25:23;12.85;;;6.13;;
14268;SDS011;7218;51.480;7.006;2022-12-07T13:28:01;14.90;;;6.18;;
14268;SDS011;7218;51.480;7.006;2022-12-07T13:30:34;12.90;;;6.80;;
14268;SDS011;7218;51.480;7.006;2022-12-07T13:33:11;17.50;;;7.70;;
14268;SDS011;7218;51.480;7.006;2022-12-07T13:35:39;11.40;;;5.00;;
14268;SDS011;7218;51.480;7.006;2022-12-07T13:38:15;8.98;;;4.50;;
14268;SDS011;7218;51.480;7.006;2022-12-07T13:41:02;13.32;;;4.30;;
14268;SDS011;7218;51.480;7.006;2022-12-07T13:43:41;16.05;;;3.95;;
14268;SDS011;7218;51.480;7.006;2022-12-07T13:46:09;7.55;;;3.80;;
14268;SDS011;7218;51.480;7.006;2022-12-07T13:48:43;10.77;;;3.47;;
14268;SDS011;7218;51.480;7.006;2022-12-07T13:51:16;6.78;;;2.67;;
14268;SDS011;7218;51.480;7.006;2022-12-07T13:53:46;6.15;;;2.67;;
14268;SDS011;7218;51.480;7.006;2022-12-07T13:56:14;11.88;;;3.50;;
14268;SDS011;7218;51.480;7.006;2022-12-07T13:58:42;9.02;;;3.63;;
14268;SDS011;7218;51.480;7.006;2022-12-07T14:01:12;9.10;;;3.40;;
14268;SDS011;7218;51.480;7.006;2022-12-07T14:03:43;9.23;;;3.55;;
14268;SDS011;7218;51.480;7.006;2022-12-07T14:06:14;8.05;;;3.50;;
14268;SDS011;7218;51.480;7.006;2022-12-07T14:08:43;8.15;;;3.22;;
14268;SDS011;7218;51.480;7.006;2022-12-07T14:11:12;10.57;;;3.42;;
14268;SDS011;7218;51.480;7.006;2022-12-07T14:13:57;10.82;;;3.72;;
14268;SDS011;7218;51.480;7.006;2022-12-07T14:16:26;11.00;;;3.83;;
14268;SDS011;7218;51.480;7.006;2022-12-07T14:18:55;10.02;;;4.13;;
14268;SDS011;7218;51.480;7.006;2022-12-07T14:21:24;13.15;;;5.35;;
14268;SDS011;7218;51.480;7.006;2022-12-07T14:24:09;46.30;;;22.33;;
14268;SDS011;7218;51.480;7.006;2022-12-07T14:26:38;33.55;;;14.52;;
14268;SDS011;7218;51.480;7.006;2022-12-07T14:32:04;29.25;;;15.50;;
14268;SDS011;7218;51.480;7.006;2022-12-07T14:34:52;17.27;;;8.30;;
14268;SDS011;7218;51.480;7.006;2022-12-07T14:37:19;12.35;;;5.63;;
14268;SDS011;7218;51.480;7.006;2022-12-07T14:39:46;8.93;;;4.00;;
14268;SDS011;7218;51.480;7.006;2022-12-07T14:42:12;14.35;;;8.98;;
14268;SDS011;7218;51.480;7.006;2022-12-07T14:44:41;17.17;;;9.80;;
14268;SDS011;7218;51.480;7.006;2022-12-07T14:47:08;15.63;;;8.73;;
14268;SDS011;7218;51.480;7.006;2022-12-07T14:49:35;9.73;;;4.97;;
14268;SDS011;7218;51.480;7.006;2022-12-07T14:52:02;10.60;;;4.40;;
14268;SDS011;7218;51.480;7.006;2022-12-07T14:54:30;10.43;;;4.72;;
14268;SDS011;7218;51.480;7.006;2022-12-07T14:56:58;12.20;;;5.80;;
14268;SDS011;7218;51.480;7.006;2022-12-07T14:59:24;10.52;;;5.25;;
14268;SDS011;7218;51.480;7.006;2022-12-07T15:01:52;17.00;;;8.55;;
14268;SDS011;7218;51.480;7.006;2022-12-07T15:04:19;11.73;;;5.13;;
14268;SDS011;7218;51.480;7.006;2022-12-07T15:06:54;10.60;;;5.78;;
14268;SDS011;7218;51.480;7.006;2022-12-07T15:09:22;12.25;;;5.53;;
14268;SDS011;7218;51.480;7.006;2022-12-07T15:11:48;20.63;;;8.90;;
14268;SDS011;7218;51.480;7.006;2022-12-07T15:14:14;16.90;;;7.50;;
14268;SDS011;7218;51.480;7.006;2022-12-07T15:16:42;31.45;;;14.25;;
14268;SDS011;7218;51.480;7.006;2022-12-07T15:19:16;20.58;;;10.02;;
14268;SDS011;7218;51.480;7.006;2022-12-07T15:21:44;30.45;;;14.82;;
14268;SDS011;7218;51.480;7.006;2022-12-07T15:24:11;20.90;;;10.18;;
14268;SDS011;7218;51.480;7.006;2022-12-07T15:26:38;17.70;;;7.88;;
14268;SDS011;7218;51.480;7.006;2022-12-07T15:29:06;17.17;;;6.55;;
14268;SDS011;7218;51.480;7.006;2022-12-07T15:31:34;12.55;;;4.60;;
14268;SDS011;7218;51.480;7.006;2022-12-07T15:34:00;7.53;;;3.50;;
14268;SDS011;7218;51.480;7.006;2022-12-07T15:36:29;14.45;;;3.28;;